Time,TemperatureF,DewpointF,PressureIn,WindDirection,WindDirectionDegrees,WindSpeedMPH,WindSpeedGustMPH,Humidity,HourlyPrecipIn,Conditions,Clouds,dailyrainin,SoftwareType,DateUTC
2013-06-11 00:03:00,65.0,63.0,29.84,WSW,239,0.0,0.0,93,0.00,,,0.52,,2013-06-11 04:03:00,
2013-06-11 00:12:00,65.0,63.0,29.83,WSW,246,0.0,2.0,93,0.00,,,0.52,,2013-06-11 04:12:00,
2013-06-11 00:23:00,65.0,63.0,29.83,WSW,246,0.0,2.0,93,0.00,,,0.52,,2013-06-11 04:23:00,
2013-06-11 00:33:00,64.0,63.0,29.84,WSW,239,0.0,0.0,95,0.00,,,0.52,,2013-06-11 04:33:00,
2013-06-11 00:42:00,64.0,63.0,29.84,WSW,239,0.0,0.0,95,0.00,,,0.52,,2013-06-11 04:42:00,
2013-06-11 00:53:00,64.0,63.0,29.84,WSW,239,0.0,0.0,95,0.00,,,0.52,,2013-06-11 04:53:00,
2013-06-11 01:02:00,64.0,63.0,29.84,WSW,239,0.0,0.0,95,0.00,,,0.52,,2013-06-11 05:02:00,
2013-06-11 01:12:00,64.0,63.0,29.84,WSW,239,0.0,0.0,95,0.00,,,0.52,,2013-06-11 05:12:00,
2013-06-11 01:22:00,64.0,63.0,29.84,WSW,239,0.0,0.0,95,0.00,,,0.52,,2013-06-11 05:22:00,
2013-06-11 01:32:00,64.0,63.0,29.85,WSW,239,0.0,0.0,95,0.00,,,0.52,,2013-06-11 05:32:00,
2013-06-11 01:42:00,64.0,63.0,29.85,WSW,239,0.0,0.0,95,0.00,,,0.52,,2013-06-11 05:42:00,
2013-06-11 01:52:00,64.0,63.0,29.85,WSW,239,0.0,0.0,95,0.00,,,0.52,,2013-06-11 05:52:00,
2013-06-11 02:02:00,64.0,63.0,29.85,WSW,239,0.0,0.0,95,0.00,,,0.52,,2013-06-11 06:02:00,
2013-06-11 02:12:00,64.0,63.0,29.85,WSW,239,0.0,0.0,95,0.00,,,0.52,,2013-06-11 06:12:00,
2013-06-11 02:22:00,64.0,63.0,29.85,WSW,239,0.0,0.0,95,0.00,,,0.52,,2013-06-11 06:22:00,
2013-06-11 02:32:00,64.0,63.0,29.84,WSW,239,0.0,0.0,95,0.00,,,0.52,,2013-06-11 06:32:00,
2013-06-11 02:42:00,64.0,63.0,29.84,WSW,239,0.0,0.0,95,0.00,,,0.52,,2013-06-11 06:42:00,
2013-06-11 02:52:00,64.0,63.0,29.84,WSW,239,0.0,0.0,95,0.00,,,0.52,,2013-06-11 06:52:00,
2013-06-11 03:02:00,64.0,63.0,29.84,WSW,239,0.0,0.0,95,0.00,,,0.47,,2013-06-11 07:02:00,
2013-06-11 03:13:00,64.0,63.0,29.84,WSW,239,0.0,0.0,95,0.00,,,0.41,,2013-06-11 07:13:00,
2013-06-11 03:22:00,64.0,63.0,29.84,WSW,239,0.0,0.0,95,0.00,,,0.41,,2013-06-11 07:22:00,
2013-06-11 03:32:00,63.0,62.0,29.84,WSW,239,0.0,0.0,95,0.00,,,0.41,,2013-06-11 07:32:00,
2013-06-11 03:42:00,63.0,62.0,29.84,WSW,239,0.0,0.0,95,0.00,,,0.41,,2013-06-11 07:42:00,
2013-06-11 03:52:00,63.0,62.0,29.84,WSW,239,0.0,0.0,95,0.00,,,0.41,,2013-06-11 07:52:00,
2013-06-11 04:02:00,63.0,62.0,29.84,WSW,239,0.0,0.0,95,0.00,,,0.41,,2013-06-11 08:02:00,
2013-06-11 04:12:00,63.0,62.0,29.84,WSW,239,0.0,0.0,95,0.00,,,0.41,,2013-06-11 08:12:00,
2013-06-11 04:22:00,63.0,62.0,29.84,WSW,239,0.0,0.0,95,0.00,,,0.41,,2013-06-11 08:22:00,
2013-06-11 04:32:00,63.0,62.0,29.85,WSW,239,0.0,0.0,95,0.00,,,0.38,,2013-06-11 08:32:00,
2013-06-11 04:42:00,63.0,62.0,29.85,WSW,239,0.0,0.0,95,0.00,,,0.38,,2013-06-11 08:42:00,
2013-06-11 04:52:00,63.0,62.0,29.85,WSW,239,0.0,0.0,95,0.00,,,0.38,,2013-06-11 08:52:00,
2013-06-11 05:02:00,63.0,62.0,29.85,WSW,239,0.0,0.0,95,0.00,,,0.37,,2013-06-11 09:02:00,
2013-06-11 05:12:00,63.0,62.0,29.85,WSW,239,0.0,0.0,95,0.00,,,0.37,,2013-06-11 09:12:00,
2013-06-11 05:22:00,63.0,62.0,29.86,WSW,239,0.0,0.0,95,0.00,,,0.37,,2013-06-11 09:22:00,
2013-06-11 05:33:00,63.0,62.0,29.86,WSW,239,0.0,0.0,95,0.00,,,0.35,,2013-06-11 09:33:00,
2013-06-11 05:43:00,63.0,62.0,29.87,WSW,239,0.0,0.0,95,0.00,,,0.34,,2013-06-11 09:43:00,
2013-06-11 05:53:00,63.0,62.0,29.87,WSW,239,0.0,0.0,95,0.00,,,0.34,,2013-06-11 09:53:00,
2013-06-11 06:03:00,62.0,61.0,29.87,WSW,239,0.0,0.0,95,0.00,,,0.29,,2013-06-11 10:03:00,
2013-06-11 06:12:00,63.0,62.0,29.88,WSW,239,0.0,0.0,95,0.00,,,0.26,,2013-06-11 10:12:00,
2013-06-11 06:23:00,63.0,62.0,29.88,WSW,239,0.0,0.0,95,0.00,,,0.26,,2013-06-11 10:23:00,
2013-06-11 06:33:00,62.0,61.0,29.88,WSW,239,0.0,0.0,95,0.00,,,0.23,,2013-06-11 10:33:00,
2013-06-11 06:42:00,63.0,62.0,29.88,WSW,239,0.0,0.0,95,0.00,,,0.22,,2013-06-11 10:42:00,
2013-06-11 06:52:00,63.0,62.0,29.88,WSW,239,0.0,0.0,95,0.00,,,0.22,,2013-06-11 10:52:00,
2013-06-11 07:02:00,63.0,62.0,29.90,WSW,239,0.0,0.0,95,0.00,,,0.21,,2013-06-11 11:02:00,
2013-06-11 07:12:00,63.0,62.0,29.90,WSW,239,0.0,0.0,95,0.00,,,0.20,,2013-06-11 11:12:00,
2013-06-11 07:22:00,63.0,62.0,29.90,WSW,239,0.0,0.0,95,0.00,,,0.20,,2013-06-11 11:22:00,
2013-06-11 07:32:00,63.0,62.0,29.91,WSW,239,0.0,0.0,95,0.00,,,0.19,,2013-06-11 11:32:00,
2013-06-11 07:42:00,63.0,62.0,29.91,WSW,239,0.0,0.0,95,0.00,,,0.18,,2013-06-11 11:42:00,
2013-06-11 07:52:00,63.0,62.0,29.91,WSW,239,0.0,0.0,95,0.00,,,0.18,,2013-06-11 11:52:00,
2013-06-11 08:02:00,64.0,63.0,29.91,WSW,239,0.0,0.0,95,0.00,,,0.18,,2013-06-11 12:02:00,
2013-06-11 08:12:00,65.0,64.0,29.91,WSW,239,0.0,0.0,95,0.00,,,0.18,,2013-06-11 12:12:00,
2013-06-11 08:22:00,65.0,64.0,29.91,WSW,239,0.0,0.0,95,0.00,,,0.18,,2013-06-11 12:22:00,
2013-06-11 08:32:00,66.0,65.0,29.92,WSW,239,0.0,3.0,95,0.00,,,0.18,,2013-06-11 12:32:00,
2013-06-11 08:42:00,67.0,66.0,29.92,West,272,0.0,0.0,95,0.00,,,0.18,,2013-06-11 12:42:00,
2013-06-11 08:52:00,67.0,66.0,29.92,West,272,0.0,0.0,95,0.00,,,0.18,,2013-06-11 12:52:00,
2013-06-11 09:02:00,68.0,67.0,29.92,West,270,0.0,1.0,95,0.00,,,0.18,,2013-06-11 13:02:00,
2013-06-11 09:12:00,68.0,67.0,29.92,West,264,0.0,5.0,95,0.00,,,0.18,,2013-06-11 13:12:00,
2013-06-11 09:22:00,68.0,67.0,29.92,West,264,0.0,5.0,95,0.00,,,0.18,,2013-06-11 13:22:00,
2013-06-11 09:32:00,70.0,68.0,29.93,SW,223,1.0,0.0,95,0.00,,,0.18,,2013-06-11 13:32:00,
2013-06-11 09:42:00,71.0,69.0,29.93,SW,223,0.0,0.0,95,0.00,,,0.18,,2013-06-11 13:42:00,
2013-06-11 09:52:00,71.0,69.0,29.93,SW,223,0.0,0.0,95,0.00,,,0.18,,2013-06-11 13:52:00,
2013-06-11 10:02:00,72.0,70.0,29.93,North,0,0.0,0.0,95,0.00,,,0.18,,2013-06-11 14:02:00,
2013-06-11 10:12:00,72.0,70.0,29.93,North,0,0.0,0.0,95,0.00,,,0.18,,2013-06-11 14:12:00,
2013-06-11 10:22:00,72.0,70.0,29.93,NW,323,0.0,0.0,95,0.00,,,0.18,,2013-06-11 14:22:00,
2013-06-11 10:32:00,74.0,71.0,29.93,West,281,0.0,3.0,90,0.00,,,0.18,,2013-06-11 14:32:00,
2013-06-11 10:42:00,74.0,70.0,29.93,SW,219,0.0,0.0,87,0.00,,,0.18,,2013-06-11 14:42:00,
2013-06-11 10:52:00,74.0,70.0,29.93,SW,219,0.0,0.0,87,0.00,,,0.18,,2013-06-11 14:52:00,
2013-06-11 11:02:00,75.0,68.0,29.93,WSW,240,1.0,5.0,78,0.00,,,0.18,,2013-06-11 15:02:00,
2013-06-11 11:12:00,75.0,67.0,29.93,SSW,210,0.0,0.0,76,0.00,,,0.18,,2013-06-11 15:12:00,
2013-06-11 11:22:00,75.0,67.0,29.93,SSW,210,0.0,0.0,76,0.00,,,0.18,,2013-06-11 15:22:00,
2013-06-11 11:33:00,77.0,65.0,29.93,NNW,345,2.0,6.0,67,0.00,,,0.18,,2013-06-11 15:33:00,
2013-06-11 11:43:00,76.0,63.0,29.93,West,262,3.0,5.0,65,0.00,,,0.18,,2013-06-11 15:43:00,
2013-06-11 11:53:00,76.0,63.0,29.93,West,262,3.0,5.0,65,0.00,,,0.18,,2013-06-11 15:53:00,
2013-06-11 12:03:00,77.0,62.0,29.94,West,276,3.0,5.0,59,0.00,,,0.18,,2013-06-11 16:03:00,
2013-06-11 12:12:00,77.0,62.0,29.94,West,276,3.0,5.0,59,0.00,,,0.18,,2013-06-11 16:12:00,
2013-06-11 12:22:00,77.0,61.0,29.94,WNW,300,0.0,2.0,57,0.00,,,0.18,,2013-06-11 16:22:00,
2013-06-11 12:33:00,78.0,60.0,29.94,West,265,1.0,3.0,54,0.00,,,0.18,,2013-06-11 16:33:00,
2013-06-11 12:42:00,78.0,58.0,29.94,North,358,7.0,9.0,50,0.00,,,0.18,,2013-06-11 16:42:00,
2013-06-11 12:52:00,78.0,58.0,29.94,North,358,7.0,9.0,50,0.00,,,0.18,,2013-06-11 16:52:00,
2013-06-11 13:02:00,79.0,60.0,29.94,North,6,2.0,5.0,52,0.00,,,0.18,,2013-06-11 17:02:00,
2013-06-11 13:12:00,79.0,60.0,29.94,North,6,2.0,5.0,52,0.00,,,0.18,,2013-06-11 17:12:00,
2013-06-11 13:22:00,79.0,58.0,29.93,NNW,329,2.0,6.0,48,0.00,,,0.18,,2013-06-11 17:22:00,
2013-06-11 13:32:00,79.0,58.0,29.93,WNW,288,1.0,6.0,48,0.00,,,0.18,,2013-06-11 17:32:00,
2013-06-11 13:43:00,79.0,57.0,29.93,North,0,0.0,0.0,47,0.00,,,0.18,,2013-06-11 17:43:00,
2013-06-11 13:52:00,79.0,57.0,29.93,North,0,0.0,0.0,47,0.00,,,0.18,,2013-06-11 17:52:00,
2013-06-11 14:02:00,80.0,57.0,29.93,NNW,343,2.0,5.0,46,0.00,,,0.18,,2013-06-11 18:02:00,
2013-06-11 14:12:00,80.0,55.0,29.93,WNW,297,0.0,3.0,43,0.00,,,0.18,,2013-06-11 18:12:00,
2013-06-11 14:22:00,80.0,55.0,29.93,WNW,297,0.0,3.0,43,0.00,,,0.18,,2013-06-11 18:22:00,
2013-06-11 14:33:00,82.0,58.0,29.92,SW,234,0.0,3.0,44,0.00,,,0.18,,2013-06-11 18:33:00,
2013-06-11 14:43:00,83.0,59.0,29.92,WSW,243,2.0,2.0,44,0.00,,,0.18,,2013-06-11 18:43:00,
2013-06-11 14:52:00,83.0,59.0,29.92,WSW,243,2.0,2.0,44,0.00,,,0.18,,2013-06-11 18:52:00,
2013-06-11 15:03:00,84.0,58.0,29.91,WSW,253,1.0,5.0,41,0.00,,,0.03,,2013-06-11 19:03:00,
2013-06-11 15:12:00,84.0,58.0,29.91,WSW,253,1.0,5.0,41,0.00,,,0.03,,2013-06-11 19:12:00,
2013-06-11 15:22:00,85.0,58.0,29.91,WSW,258,0.0,3.0,40,0.00,,,0.03,,2013-06-11 19:22:00,
2013-06-11 15:33:00,86.0,58.0,29.91,SW,232,1.0,2.0,39,0.00,,,0.03,,2013-06-11 19:33:00,
2013-06-11 15:42:00,87.0,59.0,29.91,WSW,244,1.0,5.0,39,0.00,,,0.03,,2013-06-11 19:42:00,
2013-06-11 15:52:00,87.0,59.0,29.91,WSW,244,1.0,5.0,39,0.00,,,0.03,,2013-06-11 19:52:00,
2013-06-11 16:03:00,88.0,59.0,29.91,SW,232,3.0,5.0,38,0.00,,,0.03,,2013-06-11 20:03:00,
2013-06-11 16:12:00,88.0,59.0,29.91,SW,232,3.0,5.0,38,0.00,,,0.03,,2013-06-11 20:12:00,
2013-06-11 16:22:00,88.0,58.0,29.91,WSW,254,2.0,3.0,36,0.00,,,0.03,,2013-06-11 20:22:00,
2013-06-11 16:32:00,88.0,58.0,29.90,SW,219,3.0,5.0,36,0.00,,,0.03,,2013-06-11 20:32:00,
2013-06-11 16:42:00,88.0,58.0,29.90,SW,219,3.0,5.0,36,0.00,,,0.03,,2013-06-11 20:42:00,
2013-06-11 16:52:00,88.0,58.0,29.90,SW,219,3.0,5.0,36,0.00,,,0.03,,2013-06-11 20:52:00,
2013-06-11 17:02:00,88.0,57.0,29.89,SW,236,1.0,3.0,35,0.00,,,0.03,,2013-06-11 21:02:00,
2013-06-11 17:12:00,88.0,57.0,29.89,SW,236,1.0,3.0,35,0.00,,,0.03,,2013-06-11 21:12:00,
2013-06-11 17:22:00,88.0,56.0,29.88,SW,220,0.0,0.0,34,0.00,,,0.03,,2013-06-11 21:22:00,
2013-06-11 17:33:00,89.0,58.0,29.88,SSW,211,5.0,6.0,35,0.00,,,0.03,,2013-06-11 21:33:00,
2013-06-11 17:42:00,89.0,57.0,29.87,West,261,1.0,6.0,34,0.00,,,0.03,,2013-06-11 21:42:00,
2013-06-11 17:53:00,89.0,57.0,29.87,West,261,1.0,6.0,34,0.00,,,0.03,,2013-06-11 21:53:00,
2013-06-11 18:03:00,89.0,56.0,29.87,SSW,209,3.0,6.0,33,0.00,,,0.03,,2013-06-11 22:03:00,
2013-06-11 18:12:00,89.0,57.0,29.88,WSW,257,0.0,3.0,34,0.00,,,0.03,,2013-06-11 22:12:00,
2013-06-11 18:22:00,89.0,57.0,29.88,WSW,257,0.0,3.0,34,0.00,,,0.03,,2013-06-11 22:22:00,
2013-06-11 18:33:00,88.0,58.0,29.88,South,179,0.0,0.0,36,0.00,,,0.03,,2013-06-11 22:33:00,
2013-06-11 18:42:00,87.0,58.0,29.89,SW,220,1.0,6.0,37,0.00,,,0.03,,2013-06-11 22:42:00,
2013-06-11 18:52:00,87.0,58.0,29.89,SW,220,1.0,6.0,37,0.00,,,0.03,,2013-06-11 22:52:00,
2013-06-11 19:02:00,85.0,59.0,29.90,SW,232,0.0,0.0,41,0.00,,,0.03,,2013-06-11 23:02:00,
2013-06-11 19:12:00,85.0,60.0,29.89,SW,232,0.0,0.0,43,0.00,,,0.03,,2013-06-11 23:12:00,
2013-06-11 19:22:00,85.0,60.0,29.89,SW,232,0.0,0.0,43,0.00,,,0.03,,2013-06-11 23:22:00,
2013-06-11 19:32:00,84.0,61.0,29.88,SW,232,0.0,0.0,46,0.00,,,0.03,,2013-06-11 23:32:00,
2013-06-11 19:42:00,85.0,60.0,29.89,SW,232,0.0,0.0,43,0.00,,,0.03,,2013-06-11 23:42:00,
2013-06-11 19:52:00,85.0,60.0,29.89,SW,232,0.0,0.0,43,0.00,,,0.03,,2013-06-11 23:52:00,
2013-06-11 20:02:00,82.0,60.0,29.86,South,171,0.0,0.0,47,0.00,,,0.02,,2013-06-12 00:02:00,
2013-06-11 20:12:00,82.0,60.0,29.86,South,171,0.0,0.0,47,0.00,,,0.02,,2013-06-12 00:12:00,
2013-06-11 20:22:00,82.0,60.0,29.86,South,171,0.0,0.0,47,0.00,,,0.02,,2013-06-12 00:22:00,
2013-06-11 20:32:00,81.0,61.0,29.86,SW,233,0.0,0.0,50,0.00,,,0.00,,2013-06-12 00:32:00,
2013-06-11 20:42:00,80.0,61.0,29.87,SSW,212,0.0,0.0,52,0.00,,,0.00,,2013-06-12 00:42:00,
2013-06-11 20:52:00,80.0,61.0,29.87,SSW,212,0.0,0.0,52,0.00,,,0.00,,2013-06-12 00:52:00,
2013-06-11 21:02:00,80.0,61.0,29.88,SSW,212,0.0,0.0,53,0.00,,,0.00,,2013-06-12 01:02:00,
2013-06-11 21:12:00,79.0,61.0,29.88,SSW,212,0.0,0.0,54,0.00,,,0.00,,2013-06-12 01:12:00,
2013-06-11 21:22:00,79.0,61.0,29.88,SSW,212,0.0,0.0,54,0.00,,,0.00,,2013-06-12 01:22:00,
2013-06-11 21:32:00,78.0,62.0,29.90,West,260,0.0,0.0,57,0.00,,,0.00,,2013-06-12 01:32:00,
2013-06-11 21:42:00,78.0,62.0,29.90,West,260,0.0,0.0,57,0.00,,,0.00,,2013-06-12 01:42:00,
2013-06-11 21:52:00,77.0,61.0,29.90,West,260,0.0,0.0,58,0.00,,,0.00,,2013-06-12 01:52:00,
2013-06-11 22:02:00,77.0,62.0,29.87,SW,230,3.0,5.0,59,0.00,,,0.00,,2013-06-12 02:02:00,
2013-06-11 22:12:00,77.0,63.0,29.87,West,281,0.0,0.0,61,0.00,,,0.00,,2013-06-12 02:12:00,
2013-06-11 22:22:00,77.0,63.0,29.87,West,281,0.0,0.0,61,0.00,,,0.00,,2013-06-12 02:22:00,
2013-06-11 22:32:00,76.0,62.0,29.88,WSW,256,0.0,0.0,63,0.00,,,0.00,,2013-06-12 02:32:00,
2013-06-11 22:42:00,76.0,62.0,29.88,WSW,256,0.0,0.0,63,0.00,,,0.00,,2013-06-12 02:42:00,
2013-06-11 22:52:00,76.0,62.0,29.88,WSW,256,0.0,0.0,63,0.00,,,0.00,,2013-06-12 02:52:00,
2013-06-11 23:02:00,75.0,63.0,29.89,West,260,0.0,0.0,66,0.00,,,0.00,,2013-06-12 03:02:00,
2013-06-11 23:12:00,75.0,63.0,29.90,West,260,0.0,0.0,66,0.00,,,0.00,,2013-06-12 03:12:00,
2013-06-11 23:22:00,75.0,63.0,29.90,West,260,0.0,0.0,66,0.00,,,0.00,,2013-06-12 03:22:00,
2013-06-11 23:32:00,75.0,63.0,29.88,NW,308,0.0,0.0,67,0.00,,,0.00,,2013-06-12 03:32:00,
2013-06-11 23:43:00,75.0,63.0,29.88,NW,308,0.0,0.0,67,0.00,,,0.00,,2013-06-12 03:43:00,
2013-06-11 23:53:00,75.0,63.0,29.88,NW,308,0.0,0.0,67,0.00,,,0.00,,2013-06-12 03:53:00,